sensor_id;sensor_type;location;lat;lon;timestamp;pressure;altitude;pressure_sealevel;temperature;humidity
46782;BME280;32541;46.298;11.506;2023-04-30T00:01:38;89467.47;;;8.52;89.39
46782;BME280;32541;46.298;11.506;2023-04-30T00:04:04;89464.88;;;8.54;89.19
46782;BME280;32541;46.298;11.506;2023-04-30T00:06:30;89461.81;;;8.50;88.37
46782;BME280;32541;46.298;11.506;2023-04-30T00:08:55;89460.22;;;8.47;88.33
46782;BME280;32541;46.298;11.506;2023-04-30T00:11:21;89469.34;;;8.49;88.80
46782;BME280;32541;46.298;11.506;2023-04-30T00:13:46;89464.47;;;8.57;89.20
46782;BME280;32541;46.298;11.506;2023-04-30T00:16:12;89463.00;;;8.56;89.09
46782;BME280;32541;46.298;11.506;2023-04-30T00:18:37;89461.81;;;8.50;87.03
46782;BME280;32541;46.298;11.506;2023-04-30T00:21:03;89462.81;;;8.45;87.89
46782;BME280;32541;46.298;11.506;2023-04-30T00:23:28;89463.53;;;8.45;88.89
46782;BME280;32541;46.298;11.506;2023-04-30T00:25:54;89453.59;;;8.50;88.91
46782;BME280;32541;46.298;11.506;2023-04-30T00:28:19;89456.34;;;8.50;89.16
46782;BME280;32541;46.298;11.506;2023-04-30T00:30:44;89458.38;;;8.49;89.16
46782;BME280;32541;46.298;11.506;2023-04-30T00:33:10;89453.03;;;8.51;89.22
46782;BME280;32541;46.298;11.506;2023-04-30T00:35:36;89461.41;;;8.53;89.13
46782;BME280;32541;46.298;11.506;2023-04-30T00:38:01;89453.81;;;8.61;88.49
46782;BME280;32541;46.298;11.506;2023-04-30T00:40:26;89451.06;;;8.61;88.30
46782;BME280;32541;46.298;11.506;2023-04-30T00:42:52;89448.13;;;8.50;88.64
46782;BME280;32541;46.298;11.506;2023-04-30T00:45:20;89451.53;;;8.41;88.84
46782;BME280;32541;46.298;11.506;2023-04-30T00:47:46;89447.50;;;8.42;88.65
46782;BME280;32541;46.298;11.506;2023-04-30T00:50:12;89452.66;;;8.37;88.87
46782;BME280;32541;46.298;11.506;2023-04-30T00:52:43;89452.44;;;8.26;88.79
46782;BME280;32541;46.298;11.506;2023-04-30T00:55:11;89445.13;;;8.28;87.83
46782;BME280;32541;46.298;11.506;2023-04-30T00:57:39;89448.41;;;8.27;87.62
46782;BME280;32541;46.298;11.506;2023-04-30T01:00:08;89446.94;;;8.26;87.63
46782;BME280;32541;46.298;11.506;2023-04-30T01:02:36;89452.53;;;8.35;88.07
46782;BME280;32541;46.298;11.506;2023-04-30T01:05:02;89450.03;;;8.30;88.04
46782;BME280;32541;46.298;11.506;2023-04-30T01:07:28;89443.91;;;8.22;87.78
46782;BME280;32541;46.298;11.506;2023-04-30T01:09:54;89445.84;;;8.29;87.60
46782;BME280;32541;46.298;11.506;2023-04-30T01:15:08;89445.53;;;8.08;88.68
46782;BME280;32541;46.298;11.506;2023-04-30T01:18:03;89441.38;;;8.07;87.87
46782;BME280;32541;46.298;11.506;2023-04-30T01:20:30;89437.53;;;7.93;88.90
46782;BME280;32541;46.298;11.506;2023-04-30T01:28:26;89443.97;;;7.88;89.46
46782;BME280;32541;46.298;11.506;2023-04-30T01:30:52;89446.69;;;7.88;89.22
46782;BME280;32541;46.298;11.506;2023-04-30T01:33:18;89452.50;;;7.92;88.31
46782;BME280;32541;46.298;11.506;2023-04-30T01:36:25;89453.16;;;7.82;88.05
46782;BME280;32541;46.298;11.506;2023-04-30T01:39:09;89458.78;;;7.84;87.77
46782;BME280;32541;46.298;11.506;2023-04-30T01:42:20;89457.75;;;7.80;87.68
46782;BME280;32541;46.298;11.506;2023-04-30T01:47:38;89449.53;;;7.63;87.65
46782;BME280;32541;46.298;11.506;2023-04-30T01:55:07;89449.69;;;7.48;88.02
46782;BME280;32541;46.298;11.506;2023-04-30T01:57:39;89445.84;;;7.51;88.46
46782;BME280;32541;46.298;11.506;2023-04-30T02:00:07;89450.44;;;7.48;88.00
46782;BME280;32541;46.298;11.506;2023-04-30T02:02:36;89456.69;;;7.41;89.06
46782;BME280;32541;46.298;11.506;2023-04-30T02:05:01;89455.97;;;7.41;88.88
46782;BME280;32541;46.298;11.506;2023-04-30T02:07:44;89452.34;;;7.38;88.50
46782;BME280;32541;46.298;11.506;2023-04-30T02:10:11;89454.59;;;7.32;88.92
46782;BME280;32541;46.298;11.506;2023-04-30T02:12:37;89458.59;;;7.31;90.71
46782;BME280;32541;46.298;11.506;2023-04-30T02:15:03;89466.56;;;7.37;91.07
46782;BME280;32541;46.298;11.506;2023-04-30T02:17:29;89461.56;;;7.25;90.71
46782;BME280;32541;46.298;11.506;2023-04-30T02:19:56;89466.00;;;7.21;91.22
46782;BME280;32541;46.298;11.506;2023-04-30T02:22:21;89461.97;;;7.22;90.44
46782;BME280;32541;46.298;11.506;2023-04-30T02:24:47;89460.13;;;7.24;90.86
46782;BME280;32541;46.298;11.506;2023-04-30T02:27:12;89470.13;;;7.30;91.58
46782;BME280;32541;46.298;11.506;2023-04-30T02:29:37;89459.59;;;7.43;90.85
46782;BME280;32541;46.298;11.506;2023-04-30T02:32:03;89468.59;;;7.36;91.74
46782;BME280;32541;46.298;11.506;2023-04-30T02:34:28;89464.00;;;7.39;92.05
46782;BME280;32541;46.298;11.506;2023-04-30T02:36:54;89465.38;;;7.47;91.87
46782;BME280;32541;46.298;11.506;2023-04-30T02:39:19;89465.22;;;7.45;91.34
46782;BME280;32541;46.298;11.506;2023-04-30T02:41:44;89464.91;;;7.41;91.07
46782;BME280;32541;46.298;11.506;2023-04-30T02:44:11;89464.09;;;7.48;90.32
46782;BME280;32541;46.298;11.506;2023-04-30T02:46:36;89464.41;;;7.52;90.77
46782;BME280;32541;46.298;11.506;2023-04-30T02:49:01;89457.50;;;7.51;90.37
46782;BME280;32541;46.298;11.506;2023-04-30T02:51:27;89466.66;;;7.63;90.54
46782;BME280;32541;46.298;11.506;2023-04-30T02:53:52;89464.09;;;7.48;90.46
46782;BME280;32541;46.298;11.506;2023-04-30T02:56:18;89468.28;;;7.49;90.55
46782;BME280;32541;46.298;11.506;2023-04-30T02:58:43;89470.84;;;7.47;90.44
46782;BME280;32541;46.298;11.506;2023-04-30T03:01:09;89467.25;;;7.45;90.77
46782;BME280;32541;46.298;11.506;2023-04-30T03:03:34;89472.22;;;7.39;90.38
46782;BME280;32541;46.298;11.506;2023-04-30T03:05:59;89470.53;;;7.43;90.51
46782;BME280;32541;46.298;11.506;2023-04-30T03:08:25;89468.59;;;7.36;90.15
46782;BME280;32541;46.298;11.506;2023-04-30T03:10:51;89468.41;;;7.34;90.54
46782;BME280;32541;46.298;11.506;2023-04-30T03:13:16;89472.47;;;7.33;90.49
46782;BME280;32541;46.298;11.506;2023-04-30T03:15:42;89467.16;;;7.52;89.97
46782;BME280;32541;46.298;11.506;2023-04-30T03:18:08;89465.63;;;7.42;89.61
46782;BME280;32541;46.298;11.506;2023-04-30T03:20:33;89469.53;;;7.14;91.34
46782;BME280;32541;46.298;11.506;2023-04-30T03:22:59;89459.16;;;7.12;91.48
46782;BME280;32541;46.298;11.506;2023-04-30T03:25:24;89460.19;;;7.17;91.65
46782;BME280;32541;46.298;11.506;2023-04-30T03:27:50;89460.53;;;7.21;90.87
46782;BME280;32541;46.298;11.506;2023-04-30T03:30:15;89460.19;;;7.17;90.97
46782;BME280;32541;46.298;11.506;2023-04-30T03:32:41;89459.81;;;7.20;90.69
46782;BME280;32541;46.298;11.506;2023-04-30T03:35:07;89452.50;;;7.23;90.36
46782;BME280;32541;46.298;11.506;2023-04-30T03:37:32;89461.19;;;7.29;89.58
46782;BME280;32541;46.298;11.506;2023-04-30T03:39:58;89453.22;;;7.23;90.36
46782;BME280;32541;46.298;11.506;2023-04-30T03:42:23;89449.19;;;7.24;90.81
46782;BME280;32541;46.298;11.506;2023-04-30T03:44:48;89456.84;;;7.26;90.07
46782;BME280;32541;46.298;11.506;2023-04-30T03:47:14;89446.06;;;7.28;89.26
46782;BME280;32541;46.298;11.506;2023-04-30T03:49:39;89446.28;;;7.22;89.91
46782;BME280;32541;46.298;11.506;2023-04-30T03:52:04;89444.75;;;7.12;89.89
46782;BME280;32541;46.298;11.506;2023-04-30T03:54:31;89441.22;;;7.19;89.40
46782;BME280;32541;46.298;11.506;2023-04-30T03:56:58;89441.78;;;7.17;88.75
46782;BME280;32541;46.298;11.506;2023-04-30T03:59:23;89435.88;;;7.04;89.19
46782;BME280;32541;46.298;11.506;2023-04-30T04:01:50;89441.03;;;7.00;89.63
46782;BME280;32541;46.298;11.506;2023-04-30T04:04:16;89437.50;;;7.07;89.11
46782;BME280;32541;46.298;11.506;2023-04-30T04:06:41;89438.63;;;7.04;89.27
46782;BME280;32541;46.298;11.506;2023-04-30T04:09:07;89430.75;;;7.08;89.05
46782;BME280;32541;46.298;11.506;2023-04-30T04:11:32;89440.81;;;7.05;89.40
46782;BME280;32541;46.298;11.506;2023-04-30T04:13:58;89441.53;;;7.23;88.79
46782;BME280;32541;46.298;11.506;2023-04-30T04:16:24;89439.44;;;7.14;88.55
46782;BME280;32541;46.298;11.506;2023-04-30T04:18:49;89443.16;;;7.09;87.85
46782;BME280;32541;46.298;11.506;2023-04-30T04:21:15;89443.59;;;6.98;88.14
46782;BME280;32541;46.298;11.506;2023-04-30T04:23:40;89458.94;;;6.93;89.89
46782;BME280;32541;46.298;11.506;2023-04-30T04:26:06;89458.31;;;6.78;91.12
46782;BME280;32541;46.298;11.506;2023-04-30T04:28:31;89449.97;;;6.76;91.78
46782;BME280;32541;46.298;11.506;2023-04-30T04:30:57;89454.66;;;6.83;91.54
46782;BME280;32541;46.298;11.506;2023-04-30T04:33:23;89459.00;;;6.86;91.43
46782;BME280;32541;46.298;11.506;2023-04-30T04:35:49;89457.25;;;6.98;90.71
46782;BME280;32541;46.298;11.506;2023-04-30T04:38:14;89461.44;;;6.99;90.57
46782;BME280;32541;46.298;11.506;2023-04-30T04:40:39;89456.63;;;7.07;91.07
46782;BME280;32541;46.298;11.506;2023-04-30T04:43:05;89454.13;;;7.01;91.42
46782;BME280;32541;46.298;11.506;2023-04-30T04:45:31;89455.59;;;7.02;91.46
46782;BME280;32541;46.298;11.506;2023-04-30T04:47:57;89462.69;;;7.22;90.91
46782;BME280;32541;46.298;11.506;2023-04-30T04:50:23;89463.09;;;7.19;91.49
46782;BME280;32541;46.298;11.506;2023-04-30T04:52:48;89453.88;;;7.32;90.38
46782;BME280;32541;46.298;11.506;2023-04-30T04:55:14;89467.16;;;7.35;89.43
46782;BME280;32541;46.298;11.506;2023-04-30T04:57:39;89465.94;;;7.28;89.78
46782;BME280;32541;46.298;11.506;2023-04-30T05:00:06;89462.31;;;7.26;90.76
46782;BME280;32541;46.298;11.506;2023-04-30T05:02:32;89456.25;;;7.27;90.51
46782;BME280;32541;46.298;11.506;2023-04-30T05:04:57;89468.09;;;7.30;90.52
46782;BME280;32541;46.298;11.506;2023-04-30T05:07:23;89466.06;;;7.31;91.29
46782;BME280;32541;46.298;11.506;2023-04-30T05:09:48;89457.00;;;7.28;90.78
46782;BME280;32541;46.298;11.506;2023-04-30T05:12:14;89465.13;;;7.36;91.08
46782;BME280;32541;46.298;11.506;2023-04-30T05:14:39;89459.91;;;7.47;90.43
46782;BME280;32541;46.298;11.506;2023-04-30T05:17:05;89471.09;;;7.59;90.82
46782;BME280;32541;46.298;11.506;2023-04-30T05:19:31;89473.25;;;7.60;90.36
46782;BME280;32541;46.298;11.506;2023-04-30T05:21:56;89477.41;;;7.69;89.78
46782;BME280;32541;46.298;11.506;2023-04-30T05:24:22;89470.06;;;7.71;89.98
46782;BME280;32541;46.298;11.506;2023-04-30T05:26:47;89478.28;;;7.71;89.43
46782;BME280;32541;46.298;11.506;2023-04-30T05:29:13;89484.06;;;7.93;88.26
46782;BME280;32541;46.298;11.506;2023-04-30T05:31:38;89483.25;;;8.00;87.94
46782;BME280;32541;46.298;11.506;2023-04-30T05:34:04;89480.34;;;7.98;88.16
46782;BME280;32541;46.298;11.506;2023-04-30T05:36:29;89482.19;;;8.12;86.75
46782;BME280;32541;46.298;11.506;2023-04-30T05:38:55;89482.34;;;8.14;84.87
46782;BME280;32541;46.298;11.506;2023-04-30T05:41:20;89480.84;;;8.04;85.29
46782;BME280;32541;46.298;11.506;2023-04-30T05:43:46;89479.22;;;8.01;87.36
46782;BME280;32541;46.298;11.506;2023-04-30T05:46:12;89475.66;;;8.08;86.46
46782;BME280;32541;46.298;11.506;2023-04-30T05:48:37;89492.22;;;8.27;84.69
46782;BME280;32541;46.298;11.506;2023-04-30T05:51:03;89483.88;;;8.08;82.32
46782;BME280;32541;46.298;11.506;2023-04-30T05:53:30;89481.38;;;8.19;82.73
46782;BME280;32541;46.298;11.506;2023-04-30T05:55:55;89491.28;;;8.32;81.10
46782;BME280;32541;46.298;11.506;2023-04-30T05:58:21;89490.97;;;8.11;81.28
46782;BME280;32541;46.298;11.506;2023-04-30T06:00:49;89489.69;;;8.12;81.60
46782;BME280;32541;46.298;11.506;2023-04-30T06:03:17;89493.69;;;8.11;81.51
46782;BME280;32541;46.298;11.506;2023-04-30T06:05:42;89495.16;;;7.95;81.91
46782;BME280;32541;46.298;11.506;2023-04-30T06:08:08;89492.03;;;7.98;82.45
46782;BME280;32541;46.298;11.506;2023-04-30T06:10:34;89491.47;;;8.34;81.08
46782;BME280;32541;46.298;11.506;2023-04-30T06:12:59;89490.22;;;8.45;81.91
46782;BME280;32541;46.298;11.506;2023-04-30T06:15:25;89490.00;;;8.33;84.12
46782;BME280;32541;46.298;11.506;2023-04-30T06:17:50;89488.06;;;8.43;84.16
46782;BME280;32541;46.298;11.506;2023-04-30T06:20:16;89496.03;;;8.58;82.84
46782;BME280;32541;46.298;11.506;2023-04-30T06:22:41;89493.53;;;8.70;83.24
46782;BME280;32541;46.298;11.506;2023-04-30T06:25:07;89498.94;;;8.87;82.94
46782;BME280;32541;46.298;11.506;2023-04-30T06:27:32;89495.69;;;8.98;83.57
46782;BME280;32541;46.298;11.506;2023-04-30T06:29:58;89487.78;;;9.12;83.37
46782;BME280;32541;46.298;11.506;2023-04-30T06:32:25;89485.94;;;9.24;82.84
46782;BME280;32541;46.298;11.506;2023-04-30T06:34:50;89484.09;;;9.36;81.63
46782;BME280;32541;46.298;11.506;2023-04-30T06:37:16;89481.69;;;9.49;81.95
46782;BME280;32541;46.298;11.506;2023-04-30T06:39:41;89484.91;;;9.75;81.10
46782;BME280;32541;46.298;11.506;2023-04-30T06:42:06;89487.53;;;9.92;78.51
46782;BME280;32541;46.298;11.506;2023-04-30T06:44:32;89486.22;;;9.64;77.67
46782;BME280;32541;46.298;11.506;2023-04-30T06:46:57;89484.00;;;9.43;80.39
46782;BME280;32541;46.298;11.506;2023-04-30T06:49:22;89484.28;;;9.38;80.86
46782;BME280;32541;46.298;11.506;2023-04-30T06:51:48;89481.38;;;9.36;80.82
46782;BME280;32541;46.298;11.506;2023-04-30T06:54:13;89488.28;;;9.27;79.74
46782;BME280;32541;46.298;11.506;2023-04-30T06:56:39;89496.00;;;9.12;79.32
46782;BME280;32541;46.298;11.506;2023-04-30T06:59:04;89490.56;;;9.21;79.63
46782;BME280;32541;46.298;11.506;2023-04-30T07:01:29;89488.72;;;9.33;79.70
46782;BME280;32541;46.298;11.506;2023-04-30T07:03:55;89489.78;;;9.57;78.91
46782;BME280;32541;46.298;11.506;2023-04-30T07:06:20;89484.47;;;9.69;78.74
46782;BME280;32541;46.298;11.506;2023-04-30T07:08:46;89487.13;;;10.15;76.07
46782;BME280;32541;46.298;11.506;2023-04-30T07:11:11;89488.16;;;10.38;74.37
46782;BME280;32541;46.298;11.506;2023-04-30T07:13:37;89484.38;;;10.53;74.00
46782;BME280;32541;46.298;11.506;2023-04-30T07:16:04;89478.00;;;10.50;75.31
46782;BME280;32541;46.298;11.506;2023-04-30T07:18:29;89479.66;;;10.84;73.55
46782;BME280;32541;46.298;11.506;2023-04-30T07:20:55;89478.31;;;11.04;74.44
46782;BME280;32541;46.298;11.506;2023-04-30T07:23:20;89480.66;;;11.29;71.90
46782;BME280;32541;46.298;11.506;2023-04-30T07:25:46;89480.22;;;11.33;70.98
46782;BME280;32541;46.298;11.506;2023-04-30T07:28:11;89487.69;;;11.11;71.18
46782;BME280;32541;46.298;11.506;2023-04-30T07:30:37;89485.41;;;11.07;71.29
46782;BME280;32541;46.298;11.506;2023-04-30T07:33:02;89484.66;;;11.07;71.03
46782;BME280;32541;46.298;11.506;2023-04-30T07:35:27;89474.75;;;11.23;69.55
46782;BME280;32541;46.298;11.506;2023-04-30T07:37:53;89476.28;;;11.36;70.19
46782;BME280;32541;46.298;11.506;2023-04-30T07:40:18;89470.06;;;11.66;68.73
46782;BME280;32541;46.298;11.506;2023-04-30T07:42:44;89464.53;;;11.76;70.35
46782;BME280;32541;46.298;11.506;2023-04-30T07:45:09;89472.78;;;11.97;70.15
46782;BME280;32541;46.298;11.506;2023-04-30T07:47:35;89469.38;;;12.08;69.86
46782;BME280;32541;46.298;11.506;2023-04-30T07:50:00;89473.38;;;12.16;69.91
46782;BME280;32541;46.298;11.506;2023-04-30T07:52:26;89476.75;;;12.26;68.92
46782;BME280;32541;46.298;11.506;2023-04-30T07:54:51;89470.22;;;12.32;70.01
46782;BME280;32541;46.298;11.506;2023-04-30T07:57:17;89473.09;;;12.12;70.16
46782;BME280;32541;46.298;11.506;2023-04-30T07:59:42;89476.13;;;11.74;69.85
46782;BME280;32541;46.298;11.506;2023-04-30T08:02:08;89474.22;;;12.19;68.23
46782;BME280;32541;46.298;11.506;2023-04-30T08:04:34;89474.78;;;12.17;67.73
46782;BME280;32541;46.298;11.506;2023-04-30T08:06:59;89472.31;;;12.21;68.18
46782;BME280;32541;46.298;11.506;2023-04-30T08:09:28;89480.06;;;12.35;65.65
46782;BME280;32541;46.298;11.506;2023-04-30T08:11:54;89469.59;;;12.33;65.45
46782;BME280;32541;46.298;11.506;2023-04-30T08:14:19;89472.97;;;12.32;66.41
46782;BME280;32541;46.298;11.506;2023-04-30T08:16:45;89475.34;;;12.25;65.99
46782;BME280;32541;46.298;11.506;2023-04-30T08:19:11;89479.41;;;12.24;66.13
46782;BME280;32541;46.298;11.506;2023-04-30T08:21:36;89484.78;;;12.01;67.73
46782;BME280;32541;46.298;11.506;2023-04-30T08:24:02;89475.44;;;12.27;64.68
46782;BME280;32541;46.298;11.506;2023-04-30T08:26:27;89478.97;;;12.40;64.61
46782;BME280;32541;46.298;11.506;2023-04-30T08:28:53;89474.34;;;12.54;63.71
46782;BME280;32541;46.298;11.506;2023-04-30T08:31:18;89474.25;;;12.52;64.17
46782;BME280;32541;46.298;11.506;2023-04-30T08:33:44;89483.41;;;12.66;63.40
46782;BME280;32541;46.298;11.506;2023-04-30T08:36:09;89485.78;;;12.60;64.18
46782;BME280;32541;46.298;11.506;2023-04-30T08:38:35;89485.56;;;12.35;65.54
46782;BME280;32541;46.298;11.506;2023-04-30T08:43:30;89487.22;;;12.28;67.21
46782;BME280;32541;46.298;11.506;2023-04-30T08:45:59;89500.41;;;12.08;67.49
46782;BME280;32541;46.298;11.506;2023-04-30T08:48:26;89497.50;;;12.06;67.09
46782;BME280;32541;46.298;11.506;2023-04-30T08:50:52;89499.75;;;11.98;68.52
46782;BME280;32541;46.298;11.506;2023-04-30T08:53:18;89499.53;;;12.06;68.04
46782;BME280;32541;46.298;11.506;2023-04-30T08:55:46;89498.63;;;11.92;67.22
46782;BME280;32541;46.298;11.506;2023-04-30T08:58:11;89498.81;;;11.84;66.83
46782;BME280;32541;46.298;11.506;2023-04-30T09:00:37;89504.34;;;11.84;66.45
46782;BME280;32541;46.298;11.506;2023-04-30T09:03:04;89495.66;;;12.20;65.73
46782;BME280;32541;46.298;11.506;2023-04-30T09:05:29;89495.47;;;12.28;65.60
46782;BME280;32541;46.298;11.506;2023-04-30T09:07:55;89498.91;;;12.38;67.20
46782;BME280;32541;46.298;11.506;2023-04-30T09:10:21;89490.53;;;12.48;67.68
46782;BME280;32541;46.298;11.506;2023-04-30T09:13:06;89498.41;;;12.74;66.88
46782;BME280;32541;46.298;11.506;2023-04-30T09:15:33;89493.84;;;13.00;65.54
46782;BME280;32541;46.298;11.506;2023-04-30T09:18:10;89496.97;;;13.06;66.45
46782;BME280;32541;46.298;11.506;2023-04-30T09:20:36;89494.38;;;13.31;64.12
46782;BME280;32541;46.298;11.506;2023-04-30T09:23:07;89494.50;;;13.33;63.01
46782;BME280;32541;46.298;11.506;2023-04-30T09:25:40;89494.47;;;13.22;59.41
46782;BME280;32541;46.298;11.506;2023-04-30T09:28:10;89487.31;;;13.40;61.68
46782;BME280;32541;46.298;11.506;2023-04-30T09:30:36;89493.09;;;13.56;61.83
46782;BME280;32541;46.298;11.506;2023-04-30T09:33:01;89490.09;;;13.86;60.66
46782;BME280;32541;46.298;11.506;2023-04-30T09:35:35;89488.66;;;13.51;63.28
46782;BME280;32541;46.298;11.506;2023-04-30T09:38:02;89483.78;;;14.09;60.52
46782;BME280;32541;46.298;11.506;2023-04-30T09:40:36;89495.25;;;13.92;57.61
46782;BME280;32541;46.298;11.506;2023-04-30T09:43:03;89478.72;;;14.17;58.97
46782;BME280;32541;46.298;11.506;2023-04-30T09:45:41;89486.75;;;14.73;56.24
46782;BME280;32541;46.298;11.506;2023-04-30T09:48:10;89480.13;;;15.42;52.93
46782;BME280;32541;46.298;11.506;2023-04-30T09:50:39;89475.69;;;15.90;52.43
46782;BME280;32541;46.298;11.506;2023-04-30T09:53:09;89479.00;;;16.27;53.11
46782;BME280;32541;46.298;11.506;2023-04-30T09:55:35;89477.94;;;16.34;49.78
46782;BME280;32541;46.298;11.506;2023-04-30T09:58:08;89480.38;;;15.21;49.76
46782;BME280;32541;46.298;11.506;2023-04-30T10:00:35;89475.63;;;14.60;50.94
46782;BME280;32541;46.298;11.506;2023-04-30T10:03:06;89472.50;;;15.29;50.28
46782;BME280;32541;46.298;11.506;2023-04-30T10:08:27;89475.41;;;14.81;49.71
46782;BME280;32541;46.298;11.506;2023-04-30T10:10:58;89470.91;;;14.62;52.87
46782;BME280;32541;46.298;11.506;2023-04-30T10:13:30;89475.63;;;14.60;51.81
46782;BME280;32541;46.298;11.506;2023-04-30T10:16:00;89452.16;;;14.86;51.14
46782;BME280;32541;46.298;11.506;2023-04-30T10:18:36;89476.84;;;14.57;50.89
46782;BME280;32541;46.298;11.506;2023-04-30T10:21:06;89463.03;;;14.45;50.74
46782;BME280;32541;46.298;11.506;2023-04-30T10:23:37;89464.41;;;14.69;50.73
46782;BME280;32541;46.298;11.506;2023-04-30T10:26:03;89464.56;;;14.60;51.46
46782;BME280;32541;46.298;11.506;2023-04-30T10:28:29;89464.06;;;14.88;51.53
46782;BME280;32541;46.298;11.506;2023-04-30T10:30:56;89454.28;;;14.99;52.99
46782;BME280;32541;46.298;11.506;2023-04-30T10:33:36;89448.25;;;15.16;49.84
46782;BME280;32541;46.298;11.506;2023-04-30T10:36:05;89462.13;;;15.16;52.02
46782;BME280;32541;46.298;11.506;2023-04-30T10:38:36;89453.81;;;15.16;53.11
46782;BME280;32541;46.298;11.506;2023-04-30T10:41:05;89458.91;;;15.08;51.98
46782;BME280;32541;46.298;11.506;2023-04-30T10:43:31;89447.84;;;14.83;52.11
46782;BME280;32541;46.298;11.506;2023-04-30T10:45:59;89451.88;;;14.43;50.69
46782;BME280;32541;46.298;11.506;2023-04-30T10:48:25;89456.75;;;14.56;51.55
46782;BME280;32541;46.298;11.506;2023-04-30T10:50:55;89441.69;;;14.59;52.18
46782;BME280;32541;46.298;11.506;2023-04-30T10:53:20;89447.19;;;14.96;54.92
46782;BME280;32541;46.298;11.506;2023-04-30T10:55:56;89462.34;;;15.20;50.95
46782;BME280;32541;46.298;11.506;2023-04-30T10:58:40;89425.78;;;15.90;49.52
46782;BME280;32541;46.298;11.506;2023-04-30T11:01:11;89437.91;;;15.55;47.81
46782;BME280;32541;46.298;11.506;2023-04-30T11:03:40;89449.00;;;15.17;48.24
46782;BME280;32541;46.298;11.506;2023-04-30T11:06:15;89428.47;;;15.35;51.15
46782;BME280;32541;46.298;11.506;2023-04-30T11:08:45;89432.47;;;14.55;51.26
46782;BME280;32541;46.298;11.506;2023-04-30T11:11:12;89438.31;;;14.86;51.56
46782;BME280;32541;46.298;11.506;2023-04-30T11:13:46;89435.00;;;15.15;49.91
46782;BME280;32541;46.298;11.506;2023-04-30T11:16:12;89434.81;;;15.77;50.94
46782;BME280;32541;46.298;11.506;2023-04-30T11:18:43;89427.63;;;15.72;49.23
46782;BME280;32541;46.298;11.506;2023-04-30T11:21:09;89415.53;;;16.06;49.42
46782;BME280;32541;46.298;11.506;2023-04-30T11:23:35;89413.66;;;16.10;50.17
46782;BME280;32541;46.298;11.506;2023-04-30T11:26:01;89415.06;;;16.25;47.00
46782;BME280;32541;46.298;11.506;2023-04-30T11:28:28;89408.16;;;16.40;48.59
46782;BME280;32541;46.298;11.506;2023-04-30T11:30:56;89409.44;;;16.23;50.84
46782;BME280;32541;46.298;11.506;2023-04-30T11:33:24;89412.28;;;16.25;47.74
46782;BME280;32541;46.298;11.506;2023-04-30T11:35:51;89414.56;;;16.72;47.87
46782;BME280;32541;46.298;11.506;2023-04-30T11:38:28;89408.84;;;16.54;46.75
46782;BME280;32541;46.298;11.506;2023-04-30T11:40:56;89402.16;;;16.59;45.96
46782;BME280;32541;46.298;11.506;2023-04-30T11:43:25;89416.91;;;16.77;48.90
46782;BME280;32541;46.298;11.506;2023-04-30T11:48:37;89413.19;;;17.02;48.51
46782;BME280;32541;46.298;11.506;2023-04-30T11:51:13;89400.75;;;16.44;47.47
46782;BME280;32541;46.298;11.506;2023-04-30T11:53:39;89411.47;;;16.23;47.98
46782;BME280;32541;46.298;11.506;2023-04-30T11:56:04;89413.78;;;15.99;47.28
46782;BME280;32541;46.298;11.506;2023-04-30T11:58:34;89398.75;;;16.18;48.31
46782;BME280;32541;46.298;11.506;2023-04-30T12:01:02;89404.56;;;16.37;48.45
46782;BME280;32541;46.298;11.506;2023-04-30T12:03:28;89411.78;;;16.29;46.49
46782;BME280;32541;46.298;11.506;2023-04-30T12:05:53;89396.50;;;16.57;48.42
46782;BME280;32541;46.298;11.506;2023-04-30T12:08:19;89405.66;;;16.46;48.10
46782;BME280;32541;46.298;11.506;2023-04-30T12:10:44;89405.78;;;16.34;48.69
46782;BME280;32541;46.298;11.506;2023-04-30T12:13:13;89400.22;;;15.91;46.97
46782;BME280;32541;46.298;11.506;2023-04-30T12:15:39;89405.47;;;15.58;48.01
46782;BME280;32541;46.298;11.506;2023-04-30T12:18:12;89406.91;;;15.73;47.78
46782;BME280;32541;46.298;11.506;2023-04-30T12:20:39;89406.13;;;15.45;50.04
46782;BME280;32541;46.298;11.506;2023-04-30T12:23:07;89405.50;;;15.33;47.42
46782;BME280;32541;46.298;11.506;2023-04-30T12:25:40;89415.94;;;15.73;47.47
46782;BME280;32541;46.298;11.506;2023-04-30T12:28:10;89409.16;;;15.90;48.12
46782;BME280;32541;46.298;11.506;2023-04-30T12:30:36;89400.41;;;15.68;46.49
46782;BME280;32541;46.298;11.506;2023-04-30T12:33:02;89401.13;;;15.96;47.98
46782;BME280;32541;46.298;11.506;2023-04-30T12:35:29;89396.84;;;15.66;46.06
46782;BME280;32541;46.298;11.506;2023-04-30T12:38:06;89392.41;;;15.88;47.41
46782;BME280;32541;46.298;11.506;2023-04-30T12:40:32;89387.53;;;16.16;47.87
46782;BME280;32541;46.298;11.506;2023-04-30T12:43:08;89386.06;;;16.28;45.99
46782;BME280;32541;46.298;11.506;2023-04-30T12:45:53;89379.25;;;16.02;46.61
46782;BME280;32541;46.298;11.506;2023-04-30T12:48:21;89378.63;;;16.03;47.35
46782;BME280;32541;46.298;11.506;2023-04-30T12:50:51;89380.41;;;15.97;47.76
46782;BME280;32541;46.298;11.506;2023-04-30T12:53:17;89388.31;;;15.75;47.45
46782;BME280;32541;46.298;11.506;2023-04-30T12:55:42;89379.50;;;15.51;47.63
46782;BME280;32541;46.298;11.506;2023-04-30T12:58:14;89379.28;;;15.61;47.24
46782;BME280;32541;46.298;11.506;2023-04-30T13:03:09;89361.25;;;16.59;45.37
46782;BME280;32541;46.298;11.506;2023-04-30T13:05:35;89359.63;;;17.15;46.92
46782;BME280;32541;46.298;11.506;2023-04-30T13:08:01;89357.41;;;17.43;43.08
46782;BME280;32541;46.298;11.506;2023-04-30T13:10:28;89363.31;;;17.04;46.16
46782;BME280;32541;46.298;11.506;2023-04-30T13:12:53;89355.34;;;16.38;45.49
46782;BME280;32541;46.298;11.506;2023-04-30T13:15:19;89351.59;;;16.76;44.88
46782;BME280;32541;46.298;11.506;2023-04-30T13:17:44;89360.91;;;16.67;44.21
46782;BME280;32541;46.298;11.506;2023-04-30T13:20:10;89342.78;;;17.11;44.49
46782;BME280;32541;46.298;11.506;2023-04-30T13:22:35;89342.06;;;17.26;46.21